Time;durP1;ratioP1;P1;durP2;ratioP2;P2;SDS_P1;SDS_P2;PMS_P1;PMS_P2;Temp;Humidity;BMP_temperature;BMP_pressure;BME280_temperature;BME280_humidity;BME280_pressure;Samples;Min_cycle;Max_cycle;Signal;HPM_P1;HPM_P2
2022/05/20 00:04:33;;;;;;;;;3.00;3.00;;;;;;;;2;261075940;261075940;-86
2022/05/20 00:14:01;;;;;;;;;2.00;2.00;;;;;;;;2;288082850;288082850;-86
2022/05/20 00:22:16;;;;;;;;;2.50;2.50;;;;;;;;2;261076309;261076309;-84
2022/05/20 00:31:44;;;;;;;;;1.00;1.00;;;;;;;;2;288084242;288084242;-86
2022/05/20 00:39:59;;;;;;;;;3.00;3.00;;;;;;;;2;261076783;261076783;-85
2022/05/20 00:49:29;;;;;;;;;2.50;2.50;;;;;;;;2;288083866;288083866;-86
2022/05/20 00:58:11;;;;;;;;;3.00;3.00;;;;;;;;2;261077292;261077292;-86
2022/05/20 01:07:39;;;;;;;;;1.00;1.00;;;;;;;;2;288085597;288085597;-85
2022/05/20 01:15:55;;;;;;;;;1.00;1.00;;;;;;;;2;261077534;261077534;-89
2022/05/20 01:25:24;;;;;;;;;0.00;0.00;;;;;;;;2;288083489;288083489;-87
2022/05/20 01:33:43;;;;;;;;;0.50;0.50;;;;;;;;2;261076922;261076922;-87
2022/05/20 01:43:22;;;;;;;;;5.50;5.50;;;;;;;;2;288084966;288084966;-86
2022/05/20 01:51:44;;;;;;;;;6.00;6.00;;;;;;;;2;261074617;261074617;-85
2022/05/20 02:01:15;;;;;;;;;13.00;1.50;;;;;;;;2;288082397;288082397;-85
2022/05/20 02:09:50;;;;;;;;;1.50;1.50;;;;;;;;2;260806440;260806440;-84
2022/05/20 02:22:42;;;;;;;;;4.50;4.50;;;;;;;;2;288083669;288083669;-85
2022/05/20 02:30:58;;;;;;;;;1.50;1.50;;;;;;;;2;261075769;261075769;-85
2022/05/20 02:40:26;;;;;;;;;0.50;0.50;;;;;;;;2;288082736;288082736;-85
2022/05/20 02:48:41;;;;;;;;;4.00;4.00;;;;;;;;2;261078528;261078528;-85
2022/05/20 03:04:09;;;;;;;;;2.50;2.50;;;;;;;;2;288085520;288085520;-86
2022/05/20 03:06:49;;;;;;;;;0.00;0.00;;;;;;;;2;261075036;261075036;-86
2022/05/20 03:16:17;;;;;;;;;2.50;2.50;;;;;;;;2;288084072;288084072;-86
2022/05/20 03:24:32;;;;;;;;;4.50;4.50;;;;;;;;2;261074532;261074532;-86
2022/05/20 03:34:05;;;;;;;;;8.50;3.50;;;;;;;;2;288085063;288085063;-87
2022/05/20 03:42:21;;;;;;;;;3.00;3.00;;;;;;;;2;261073479;261073479;-87
2022/05/20 03:51:49;;;;;;;;;1.50;1.50;;;;;;;;2;288084250;288084250;-86
2022/05/20 04:00:05;;;;;;;;;3.50;3.50;;;;;;;;2;261077080;261077080;-86
2022/05/20 04:09:24;;;;;;;;;2.50;2.50;;;;;;;;2;283896050;283896050;-87
2022/05/20 04:17:33;;;;;;;;;2.00;2.00;;;;;;;;2;257262781;257262781;-87
2022/05/20 04:26:53;;;;;;;;;2.00;2.00;;;;;;;;2;284360711;284360711;-88
2022/05/20 04:35:05;;;;;;;;;6.00;1.00;;;;;;;;2;259360726;259360726;-86
2022/05/20 04:52:53;;;;;;;;;2.50;2.50;;;;;;;;2;258235085;258235085;-85
2022/05/20 05:02:14;;;;;;;;;3.50;3.50;;;;;;;;2;283994469;283994469;-85
2022/05/20 05:10:22;;;;;;;;;0.00;0.00;;;;;;;;2;256785173;256785173;-85
2022/05/20 05:19:39;;;;;;;;;5.00;5.00;;;;;;;;2;281391428;281391428;-85
2022/05/20 05:27:23;;;;;;;;;3.00;3.00;;;;;;;;2;252367890;252367890;-84
2022/05/20 05:36:28;;;;;;;;;12.50;3.00;;;;;;;;2;273950274;273950274;-86
2022/05/20 05:44:28;;;;;;;;;7.00;4.00;;;;;;;;2;253522761;253522761;-74
2022/05/20 05:53:42;;;;;;;;;1.50;1.50;;;;;;;;2;281643933;281643933;-74
2022/05/20 06:01:46;;;;;;;;;2.50;2.50;;;;;;;;2;253897857;253897857;-73
2022/05/20 06:11:03;;;;;;;;;3.00;3.00;;;;;;;;2;283349422;283349422;-73
2022/05/20 06:19:07;;;;;;;;;5.00;5.00;;;;;;;;2;253063746;253063746;-73
2022/05/20 06:28:27;;;;;;;;;4.50;4.50;;;;;;;;2;284175192;284175192;-87
2022/05/20 06:46:14;;;;;;;;;9.50;7.50;;;;;;;;2;284083619;284083619;-87
2022/05/20 06:54:20;;;;;;;;;10.50;10.50;;;;;;;;2;255370753;255370753;-84
2022/05/20 07:03:48;;;;;;;;;9.00;9.00;;;;;;;;2;288083877;288083877;-79
2022/05/20 07:12:03;;;;;;;;;14.00;5.50;;;;;;;;2;261076645;261076645;-81
2022/05/20 07:21:31;;;;;;;;;14.00;14.00;;;;;;;;2;288085079;288085079;-81
2022/05/20 07:29:47;;;;;;;;;15.50;15.50;;;;;;;;2;261077157;261077157;-81
2022/05/20 07:39:14;;;;;;;;;5.50;5.50;;;;;;;;2;288087367;288087367;-82
2022/05/20 07:47:30;;;;;;;;;9.00;9.00;;;;;;;;2;261076480;261076480;-82
2022/05/20 07:57:01;;;;;;;;;9.00;9.00;;;;;;;;2;288081835;288081835;-83
2022/05/20 08:05:20;;;;;;;;;5.50;5.50;;;;;;;;2;261085978;261085978;-83
2022/05/20 08:14:48;;;;;;;;;7.00;7.00;;;;;;;;2;288084505;288084505;-83
2022/05/20 08:23:04;;;;;;;;;10.50;10.50;;;;;;;;2;261074916;261074916;-83
2022/05/20 08:32:31;;;;;;;;;17.00;17.00;;;;;;;;2;288081879;288081879;-83
2022/05/20 08:40:49;;;;;;;;;12.50;12.50;;;;;;;;2;261075940;261075940;-83
2022/05/20 08:50:20;;;;;;;;;19.00;19.00;;;;;;;;2;288083328;288083328;-82
2022/05/20 08:58:37;;;;;;;;;19.00;19.00;;;;;;;;2;261077217;261077217;-83
2022/05/20 09:08:19;;;;;;;;;9.50;9.50;;;;;;;;2;288083485;288083485;-82
2022/05/20 09:16:35;;;;;;;;;19.00;19.00;;;;;;;;2;261074642;261074642;-83
2022/05/20 09:26:11;;;;;;;;;16.50;16.50;;;;;;;;2;288085159;288085159;-91
2022/05/20 09:32:04;;;;;;;;;19.00;17.00;;;;;;;;2;261074106;261074106;-91
2022/05/20 09:40:52;;;;;;;;;20.50;20.50;;;;;;;;3;28118354;239425844;-90
2022/05/20 09:48:36;;;;;;;;;26.50;26.50;;;;;;;;2;232658918;232658918;-87
2022/05/20 09:57:39;;;;;;;;;28.00;20.00;;;;;;;;2;279079914;279079914;-87
2022/05/20 10:06:21;;;;;;;;;25.00;14.00;;;;;;;;2;234070423;234070423;-87
2022/05/20 10:15:31;;;;;;;;;22.50;22.50;;;;;;;;2;279080333;279080333;-87
2022/05/20 10:24:19;;;;;;;;;19.50;17.00;;;;;;;;2;234065728;234065728;-86
2022/05/20 10:33:24;;;;;;;;;29.00;19.00;;;;;;;;2;279079246;279079246;-86
2022/05/20 10:42:15;;;;;;;;;13.00;13.00;;;;;;;;2;234067965;234067965;-86
2022/05/20 10:51:31;;;;;;;;;32.50;19.50;;;;;;;;2;279080448;279080448;-86
2022/05/20 11:00:16;;;;;;;;;25.00;25.00;;;;;;;;2;234069087;234069087;-87
2022/05/20 11:09:37;;;;;;;;;21.00;21.00;;;;;;;;2;279080236;279080236;-85
2022/05/20 11:18:20;;;;;;;;;20.00;20.00;;;;;;;;2;234072272;234072272;-83
2022/05/20 11:27:33;;;;;;;;;26.50;26.50;;;;;;;;2;279080061;279080061;-89
2022/05/20 11:36:28;;;;;;;;;25.50;25.50;;;;;;;;2;234069682;234069682;-86
2022/05/20 11:45:42;;;;;;;;;22.50;22.50;;;;;;;;2;279082375;279082375;-87
2022/05/20 11:54:28;;;;;;;;;23.50;23.50;;;;;;;;2;234067268;234067268;-90
2022/05/20 12:04:06;;;;;;;;;23.00;23.00;;;;;;;;2;279080069;279080069;-86
2022/05/20 12:12:34;;;;;;;;;24.00;24.00;;;;;;;;2;234067516;234067516;-86
2022/05/20 12:30:44;;;;;;;;;12.00;12.00;;;;;;;;2;234068139;234068139;-82
2022/05/20 12:39:46;;;;;;;;;9.00;9.00;;;;;;;;2;279081750;279081750;-80
2022/05/20 12:48:30;;;;;;;;;15.00;11.00;;;;;;;;2;234070444;234070444;-79
2022/05/20 12:57:33;;;;;;;;;20.00;11.00;;;;;;;;2;279080252;279080252;-81
2022/05/20 13:06:18;;;;;;;;;13.50;13.50;;;;;;;;2;234070280;234070280;-82
2022/05/20 13:15:19;;;;;;;;;11.00;11.00;;;;;;;;2;279084076;279084076;-81
2022/05/20 13:20:53;;;;;;;;;12.00;12.00;;;;;;;;2;234068424;234068424;-81
2022/05/20 13:29:54;;;;;;;;;6.50;6.50;;;;;;;;2;279085029;279085029;-81
2022/05/20 13:38:40;;;;;;;;;10.00;10.00;;;;;;;;2;234067895;234067895;-80
2022/05/20 13:56:43;;;;;;;;;7.50;7.50;;;;;;;;2;234069603;234069603;-84
2022/05/20 14:05:47;;;;;;;;;8.50;8.50;;;;;;;;2;279080604;279080604;-81
2022/05/20 14:14:32;;;;;;;;;4.00;4.00;;;;;;;;2;234067147;234067147;-79
2022/05/20 14:23:42;;;;;;;;;8.50;8.50;;;;;;;;2;279078452;279078452;-80
2022/05/20 14:32:25;;;;;;;;;6.50;6.50;;;;;;;;2;234069694;234069694;-81
2022/05/20 14:41:26;;;;;;;;;3.50;3.50;;;;;;;;2;279080997;279080997;-80
2022/05/20 14:50:12;;;;;;;;;2.50;2.50;;;;;;;;2;234067690;234067690;-86
2022/05/20 14:59:13;;;;;;;;;9.00;9.00;;;;;;;;2;279081050;279081050;-80
2022/05/20 15:08:01;;;;;;;;;5.50;5.50;;;;;;;;2;234066529;234066529;-78
2022/05/20 15:17:01;;;;;;;;;11.50;8.50;;;;;;;;2;279080502;279080502;-76
2022/05/20 15:25:48;;;;;;;;;18.50;18.50;;;;;;;;2;234068418;234068418;-81
2022/05/20 15:34:52;;;;;;;;;25.00;20.00;;;;;;;;2;279079550;279079550;-83
2022/05/20 15:43:34;;;;;;;;;21.00;21.00;;;;;;;;2;234068876;234068876;-83
2022/05/20 15:52:40;;;;;;;;;14.00;14.00;;;;;;;;2;279082351;279082351;-86
2022/05/20 16:01:23;;;;;;;;;10.00;10.00;;;;;;;;2;234067065;234067065;-81
2022/05/20 16:10:27;;;;;;;;;17.50;14.50;;;;;;;;2;279082465;279082465;-80
2022/05/20 16:19:10;;;;;;;;;13.00;13.00;;;;;;;;2;234069882;234069882;-78
2022/05/20 16:28:11;;;;;;;;;11.00;11.00;;;;;;;;2;279082521;279082521;-83
2022/05/20 16:36:53;;;;;;;;;6.00;6.00;;;;;;;;2;234067672;234067672;-85
2022/05/20 16:45:54;;;;;;;;;11.50;9.50;;;;;;;;2;279081594;279081594;-82
2022/05/20 16:54:39;;;;;;;;;14.50;6.50;;;;;;;;2;234071214;234071214;-79
2022/05/20 17:03:40;;;;;;;;;3.00;3.00;;;;;;;;2;279079839;279079839;-83
2022/05/20 17:12:23;;;;;;;;;6.50;6.50;;;;;;;;2;234070248;234070248;-80
2022/05/20 17:30:24;;;;;;;;;2.00;2.00;;;;;;;;2;234067141;234067141;-80
2022/05/20 17:39:25;;;;;;;;;1.00;1.00;;;;;;;;2;279081957;279081957;-77
2022/05/20 17:48:07;;;;;;;;;1.50;1.50;;;;;;;;2;234070596;234070596;-85
2022/05/20 17:57:08;;;;;;;;;4.00;4.00;;;;;;;;2;279083579;279083579;-81
2022/05/20 18:05:50;;;;;;;;;1.00;1.00;;;;;;;;2;234070921;234070921;-83
2022/05/20 18:14:52;;;;;;;;;0.50;0.50;;;;;;;;2;279081444;279081444;-80
2022/05/20 18:23:35;;;;;;;;;0.50;0.50;;;;;;;;2;234071792;234071792;-78
2022/05/20 18:32:36;;;;;;;;;3.00;3.00;;;;;;;;2;279083145;279083145;-79
2022/05/20 18:41:18;;;;;;;;;1.00;1.00;;;;;;;;2;234068878;234068878;-78
2022/05/20 18:50:20;;;;;;;;;3.00;3.00;;;;;;;;2;279081325;279081325;-81
2022/05/20 18:59:03;;;;;;;;;4.50;0.50;;;;;;;;2;234072369;234072369;-82
2022/05/20 19:05:58;;;;;;;;;3.25;3.25;;;;;;;;4247072;27;24678617;-82
2022/05/20 19:09:41;;;;;;;;;;;;;;;;;;2625581;27;138726356;-83
2022/05/20 19:12:20;;;;;;;;;3.50;3.50;;;;;;;;4062440;27;27566200;-83
2022/05/20 19:14:45;;;;;;;;;4.25;3.25;;;;;;;;2481304;27;42168469;-83
2022/05/20 19:17:11;;;;;;;;;4.75;4.75;;;;;;;;5100703;27;29883;-83
2022/05/20 19:25:53;;;;;;;;;;;;;;;;;;949129;28;261075424;-83
2022/05/20 19:35:21;;;;;;;;;2.50;2.50;;;;;;;;2;288087495;288087495;-80
2022/05/20 19:43:37;;;;;;;;;4.50;4.50;;;;;;;;2;261078368;261078368;-83
2022/05/20 19:53:04;;;;;;;;;2.50;2.50;;;;;;;;2;288083304;288083304;-82
2022/05/20 20:01:20;;;;;;;;;5.00;5.00;;;;;;;;2;261077343;261077343;-82
2022/05/20 20:10:49;;;;;;;;;2.00;2.00;;;;;;;;2;288085429;288085429;-82
2022/05/20 20:19:04;;;;;;;;;4.50;4.50;;;;;;;;2;261076364;261076364;-84
2022/05/20 20:28:39;;;;;;;;;7.50;7.50;;;;;;;;2;288080230;288080230;-82
2022/05/20 20:36:55;;;;;;;;;5.50;5.50;;;;;;;;2;261077042;261077042;-79
2022/05/20 20:46:22;;;;;;;;;7.50;7.50;;;;;;;;2;288086593;288086593;-79
2022/05/20 20:54:38;;;;;;;;;5.50;5.50;;;;;;;;2;261074258;261074258;-77
2022/05/20 21:04:07;;;;;;;;;26.00;24.50;;;;;;;;2;288081696;288081696;-77
2022/05/20 21:12:23;;;;;;;;;11.00;11.00;;;;;;;;2;261075414;261075414;-79
